Terminal Aerodrome Forecast
Issued by NWS

Home | Current Version | Previous Version | Text Only | Print | Product List | Glossary On
Versions: 1 2 3 4 5 6 7 8 9 10 11 12 13 14 15 16 17 18 19 20
000
FTUS43 KJKL 241816 RRA
TAFSJS
TAF
KSJS 241816Z 2418/2518 VRB05KT P6SM VCTS SCT004 BKN015CB OVC040
      TEMPO 2418/2421 VRB25KT 3SM -TSRA BR BKN002 OVC015CB
     FM250000 VRB05KT P6SM VCSH SCT015 BKN030
     FM250300 23005KT P6SM VCSH OVC015=

USA.gov is the U.S. government's official web portal to all federal, state and local government web resources and services.